createdAt,value
2023-11-25T00:00:10.884Z,4.53
2023-11-25T00:01:43.767Z,3.17
2023-11-25T00:03:16.191Z,7.03
2023-11-25T00:04:50.172Z,7.28
2023-11-25T00:06:21.904Z,3.45
2023-11-25T00:07:54.574Z,4.95
2023-11-25T00:09:26.295Z,2.45
2023-11-25T00:10:59.104Z,6.22
2023-11-25T00:12:32.252Z,7.63
2023-11-25T00:14:05.237Z,6.38
2023-11-25T00:15:37.043Z,4.10
2023-11-25T00:17:09.964Z,4.85
2023-11-25T00:18:42.030Z,4.22
2023-11-25T00:20:15.133Z,4.25
2023-11-25T00:21:48.174Z,7.20
2023-11-25T00:23:19.998Z,5.70
2023-11-25T00:24:52.721Z,7.55
2023-11-25T00:26:25.653Z,4.93
2023-11-25T00:28:00.536Z,6.00
2023-11-25T00:29:32.281Z,8.98
2023-11-25T00:31:05.058Z,5.43
2023-11-25T00:32:38.730Z,5.75
2023-11-25T00:34:11.548Z,4.75
2023-11-25T00:35:44.002Z,6.93
2023-11-25T00:37:17.437Z,3.88
2023-11-25T00:38:49.257Z,5.82
2023-11-25T00:40:26.511Z,6.55
2023-11-25T00:41:59.132Z,9.32
2023-11-25T00:43:33.855Z,6.90
2023-11-25T00:45:06.356Z,7.47
2023-11-25T00:46:39.351Z,6.72
2023-11-25T00:48:11.415Z,4.93
2023-11-25T00:49:46.004Z,5.80
2023-11-25T00:51:18.302Z,7.45
2023-11-25T00:52:51.027Z,7.97
2023-11-25T00:54:23.607Z,6.78
2023-11-25T00:55:57.050Z,5.20
2023-11-25T00:57:28.806Z,8.05
2023-11-25T00:59:03.087Z,9.50
2023-11-25T01:00:34.826Z,9.45
2023-11-25T01:02:07.732Z,7.28
2023-11-25T01:03:39.633Z,6.78
2023-11-25T01:05:12.852Z,4.82
2023-11-25T01:06:45.563Z,6.97
2023-11-25T01:08:18.245Z,7.43
2023-11-25T01:09:50.166Z,7.53
2023-11-25T01:11:22.846Z,6.18
2023-11-25T01:12:54.574Z,5.30
2023-11-25T01:14:29.242Z,5.00
2023-11-25T01:16:01.386Z,6.70
2023-11-25T01:17:34.226Z,8.98
2023-11-25T01:19:06.450Z,7.43
2023-11-25T01:20:39.475Z,5.43
2023-11-25T01:22:11.289Z,7.47
2023-11-25T01:23:44.049Z,5.55
2023-11-25T01:25:16.054Z,6.10
2023-11-25T01:26:49.588Z,8.57
2023-11-25T01:28:21.344Z,9.05
2023-11-25T01:29:55.373Z,9.25
2023-11-25T01:31:27.204Z,3.90
2023-11-25T01:33:00.260Z,4.25
2023-11-25T01:34:32.139Z,4.78
2023-11-25T01:36:05.490Z,9.05
2023-11-25T01:37:37.755Z,6.85
2023-11-25T01:39:10.556Z,5.63
2023-11-25T01:40:43.440Z,5.68
2023-11-25T01:42:16.240Z,6.00
2023-11-25T01:43:49.017Z,6.45
2023-11-25T01:45:22.220Z,7.80
2023-11-25T01:46:55.363Z,6.80
2023-11-25T01:48:29.155Z,5.93
2023-11-25T01:50:03.676Z,5.45
2023-11-25T01:51:37.769Z,5.78
2023-11-25T01:53:11.218Z,6.90
2023-11-25T01:54:42.987Z,4.82
2023-11-25T01:56:16.260Z,7.80
2023-11-25T01:57:48.123Z,5.78
2023-11-25T01:59:23.615Z,7.93
2023-11-25T02:00:57.179Z,7.43
2023-11-25T02:02:33.466Z,7.72
2023-11-25T02:04:05.510Z,4.88
2023-11-25T02:05:39.478Z,7.78
2023-11-25T02:07:11.889Z,7.88
2023-11-25T02:08:45.356Z,4.60
2023-11-25T02:10:17.177Z,5.57
2023-11-25T02:11:57.033Z,3.97
2023-11-25T02:13:28.938Z,7.13
2023-11-25T02:15:01.844Z,6.65
2023-11-25T02:16:35.022Z,3.42
2023-11-25T02:18:08.337Z,10.15
2023-11-25T02:19:43.782Z,3.97
2023-11-25T02:21:16.564Z,6.72
2023-11-25T02:22:58.838Z,4.82
2023-11-25T02:24:33.648Z,4.07
2023-11-25T02:26:06.032Z,4.32
2023-11-25T02:27:40.547Z,7.15
2023-11-25T02:29:12.325Z,6.65
2023-11-25T02:30:45.160Z,6.43
2023-11-25T02:32:16.990Z,4.55
2023-11-25T02:33:49.722Z,5.65
2023-11-25T02:35:22.010Z,6.65
2023-11-25T02:36:54.850Z,5.95
2023-11-25T02:38:29.013Z,4.47
2023-11-25T02:40:00.836Z,7.00
2023-11-25T02:41:33.654Z,5.50
2023-11-25T02:43:08.512Z,5.03
2023-11-25T02:44:41.962Z,5.30
2023-11-25T02:46:13.751Z,5.00
2023-11-25T02:47:47.825Z,4.72
2023-11-25T02:49:22.010Z,5.20
2023-11-25T02:50:54.798Z,5.05
2023-11-25T02:52:27.589Z,5.93
2023-11-25T02:54:01.778Z,7.55
2023-11-25T02:55:33.586Z,4.00
2023-11-25T02:57:08.775Z,5.28
2023-11-25T02:58:40.534Z,7.50
2023-11-25T03:00:19.917Z,5.72
2023-11-25T03:01:53.921Z,5.57
2023-11-25T03:03:25.947Z,6.97
2023-11-25T03:04:59.405Z,4.30
2023-11-25T03:06:32.084Z,8.75
2023-11-25T03:08:05.175Z,6.82
2023-11-25T03:09:39.949Z,7.28
2023-11-25T03:11:16.699Z,5.68
2023-11-25T03:12:51.333Z,4.53
2023-11-25T03:14:24.293Z,6.15
2023-11-25T03:15:56.204Z,6.25
2023-11-25T03:17:30.253Z,4.72
2023-11-25T03:19:02.092Z,6.90
2023-11-25T03:20:35.370Z,8.00
2023-11-25T03:22:08.174Z,6.88
2023-11-25T03:23:41.042Z,9.88
2023-11-25T03:25:16.167Z,6.82
2023-11-25T03:26:48.161Z,5.43
2023-11-25T03:28:22.029Z,8.00
2023-11-25T03:29:53.792Z,9.85
2023-11-25T03:31:28.305Z,7.40
2023-11-25T03:33:00.246Z,7.10
2023-11-25T03:34:32.979Z,6.50
2023-11-25T03:36:05.181Z,7.00
2023-11-25T03:37:38.064Z,8.82
2023-11-25T03:39:11.074Z,7.50
2023-11-25T03:40:45.302Z,7.03
2023-11-25T03:42:20.920Z,7.97
2023-11-25T03:43:53.641Z,9.43
2023-11-25T03:45:25.362Z,8.52
2023-11-25T03:46:58.508Z,8.32
2023-11-25T03:48:31.209Z,7.93
2023-11-25T03:50:04.923Z,8.75
2023-11-25T03:51:37.748Z,8.57
2023-11-25T03:53:09.718Z,9.07
2023-11-25T03:54:42.397Z,6.72
2023-11-25T03:56:16.071Z,8.63
2023-11-25T03:57:48.810Z,7.45
2023-11-25T03:59:20.568Z,8.25
2023-11-25T04:00:53.275Z,9.30
2023-11-25T04:02:25.516Z,8.73
2023-11-25T04:03:58.301Z,8.85
2023-11-25T04:05:30.101Z,10.60
2023-11-25T04:07:02.855Z,11.55
2023-11-25T04:08:34.716Z,6.80
2023-11-25T04:10:14.748Z,9.10
2023-11-25T04:11:47.977Z,9.88
2023-11-25T04:13:20.721Z,8.40
2023-11-25T04:14:52.533Z,8.07
2023-11-25T04:16:25.846Z,7.63
2023-11-25T04:17:57.670Z,9.90
2023-11-25T04:19:30.974Z,9.88
2023-11-25T04:21:03.775Z,10.80
2023-11-25T04:22:35.967Z,8.93
2023-11-25T04:24:12.024Z,7.15
2023-11-25T04:25:44.665Z,5.80
2023-11-25T04:27:19.364Z,6.15
2023-11-25T04:28:51.970Z,7.22
2023-11-25T04:30:25.007Z,9.48
2023-11-25T04:31:56.870Z,10.00
2023-11-25T04:33:30.196Z,12.35
2023-11-25T04:35:02.012Z,9.05
2023-11-25T04:36:36.193Z,7.05
2023-11-25T04:38:09.502Z,10.55
2023-11-25T04:39:41.228Z,9.40
2023-11-25T04:41:14.096Z,11.40
2023-11-25T04:42:47.392Z,11.65
2023-11-25T04:44:20.099Z,10.75
2023-11-25T04:45:54.066Z,9.65
2023-11-25T04:47:27.528Z,8.68
2023-11-25T04:49:00.305Z,11.95
2023-11-25T04:50:32.993Z,9.27
2023-11-25T04:52:05.702Z,12.23
2023-11-25T04:53:38.572Z,12.88
2023-11-25T04:55:12.364Z,8.68
2023-11-25T04:56:45.103Z,10.20
2023-11-25T04:58:19.548Z,7.70
2023-11-25T04:59:52.323Z,11.63
2023-11-25T05:01:24.182Z,11.98
2023-11-25T05:02:57.043Z,8.07
2023-11-25T05:04:28.822Z,13.70
2023-11-25T05:06:03.497Z,8.43
2023-11-25T05:07:35.936Z,9.73
2023-11-25T05:09:08.883Z,9.75
2023-11-25T05:10:40.655Z,9.38
2023-11-25T05:12:13.413Z,8.82
2023-11-25T05:13:46.507Z,8.80
2023-11-25T05:15:19.859Z,9.27
2023-11-25T05:16:51.761Z,6.88
2023-11-25T05:18:24.989Z,7.53
2023-11-25T05:19:56.758Z,9.02
2023-11-25T05:21:29.579Z,9.02
2023-11-25T05:23:04.276Z,6.82
2023-11-25T05:24:37.408Z,10.23
2023-11-25T05:26:10.502Z,10.20
2023-11-25T05:27:42.328Z,9.48
2023-11-25T05:29:16.969Z,6.93
2023-11-25T05:30:49.731Z,13.15
2023-11-25T05:32:23.759Z,9.82
2023-11-25T05:33:55.583Z,9.75
2023-11-25T05:35:28.895Z,9.00
2023-11-25T05:37:01.359Z,13.05
2023-11-25T05:38:35.322Z,11.30
2023-11-25T05:40:12.355Z,13.40
2023-11-25T05:41:45.134Z,10.90
2023-11-25T05:43:17.543Z,11.20
2023-11-25T05:44:52.105Z,12.75
2023-11-25T05:46:24.457Z,8.48
2023-11-25T05:47:57.416Z,9.73
2023-11-25T05:49:29.342Z,7.45
2023-11-25T05:51:02.027Z,9.55
2023-11-25T05:52:34.104Z,13.30
2023-11-25T05:54:07.431Z,8.20
2023-11-25T05:55:39.237Z,9.50
2023-11-25T05:57:12.343Z,9.98
2023-11-25T05:58:44.098Z,10.15
2023-11-25T06:00:18.645Z,9.52
2023-11-25T06:01:50.958Z,8.90
2023-11-25T06:03:24.512Z,9.73
2023-11-25T06:04:57.622Z,9.38
2023-11-25T06:06:29.434Z,5.68
2023-11-25T06:08:02.190Z,8.10
2023-11-25T06:09:33.938Z,8.70
2023-11-25T06:11:06.655Z,10.93
2023-11-25T06:12:38.429Z,9.65
2023-11-25T06:14:13.410Z,8.82
2023-11-25T06:15:46.693Z,10.88
2023-11-25T06:17:21.867Z,11.60
2023-11-25T06:18:55.715Z,12.23
2023-11-25T06:20:28.401Z,15.05
2023-11-25T06:22:02.008Z,11.18
2023-11-25T06:23:34.934Z,10.25
2023-11-25T06:25:07.206Z,15.57
2023-11-25T06:26:39.899Z,12.63
2023-11-25T06:28:14.458Z,12.65
2023-11-25T06:29:47.417Z,8.70
2023-11-25T06:31:20.547Z,10.32
2023-11-25T06:32:53.303Z,12.35
2023-11-25T06:34:25.116Z,9.90
2023-11-25T06:35:58.178Z,8.38
2023-11-25T06:37:31.443Z,10.23
2023-11-25T06:39:04.887Z,9.07
2023-11-25T06:40:38.923Z,10.48
2023-11-25T06:42:10.979Z,8.23
2023-11-25T06:43:45.003Z,9.68
2023-11-25T06:45:16.883Z,9.80
2023-11-25T06:46:51.028Z,11.15
2023-11-25T06:48:24.861Z,8.07
2023-11-25T06:49:56.618Z,8.63
2023-11-25T06:51:29.308Z,11.38
2023-11-25T06:53:01.040Z,12.52
2023-11-25T06:54:33.838Z,9.88
2023-11-25T06:56:09.176Z,12.63
2023-11-25T06:57:42.236Z,11.43
2023-11-25T06:59:14.249Z,8.75
2023-11-25T07:00:47.107Z,9.32
2023-11-25T07:02:20.285Z,7.80
2023-11-25T07:03:53.723Z,7.70
2023-11-25T07:05:25.581Z,9.43
2023-11-25T07:06:58.276Z,10.60
2023-11-25T07:08:30.002Z,12.02
2023-11-25T07:10:02.766Z,9.18
2023-11-25T07:11:35.229Z,8.27
2023-11-25T07:13:08.623Z,10.07
2023-11-25T07:14:41.232Z,14.75
2023-11-25T07:16:14.265Z,10.75
2023-11-25T07:17:47.499Z,9.90
2023-11-25T07:19:20.243Z,11.95
2023-11-25T07:20:54.168Z,11.32
2023-11-25T07:22:28.478Z,14.82
2023-11-25T07:24:00.620Z,10.80
2023-11-25T07:25:33.816Z,11.88
2023-11-25T07:27:07.868Z,10.77
2023-11-25T07:28:41.027Z,8.77
2023-11-25T07:30:14.115Z,12.57
2023-11-25T07:31:47.816Z,9.98
2023-11-25T07:33:21.839Z,6.03
2023-11-25T07:34:53.615Z,9.75
2023-11-25T07:36:26.844Z,10.98
2023-11-25T07:37:59.547Z,7.50
2023-11-25T07:39:34.161Z,8.23
2023-11-25T07:41:07.546Z,15.27
2023-11-25T07:42:39.304Z,11.85
2023-11-25T07:44:12.610Z,8.75
2023-11-25T07:45:45.153Z,8.50
2023-11-25T07:47:18.056Z,12.15
2023-11-25T07:48:51.175Z,9.48
2023-11-25T07:50:23.923Z,9.43
2023-11-25T07:51:55.668Z,7.47
2023-11-25T07:53:28.360Z,6.72
2023-11-25T07:55:00.214Z,8.30
2023-11-25T07:56:33.080Z,10.70
2023-11-25T07:58:06.488Z,11.48
2023-11-25T07:59:39.476Z,13.82
2023-11-25T08:01:11.194Z,7.68
2023-11-25T08:02:44.051Z,12.43
2023-11-25T08:04:17.991Z,12.20
2023-11-25T08:05:50.830Z,9.52
2023-11-25T08:07:24.739Z,11.10
2023-11-25T08:08:57.999Z,8.73
2023-11-25T08:10:35.079Z,8.23
2023-11-25T08:12:08.889Z,10.13
2023-11-25T08:13:40.891Z,7.57
2023-11-25T08:15:14.779Z,10.95
2023-11-25T08:16:48.547Z,8.27
2023-11-25T08:18:20.410Z,16.02
2023-11-25T08:19:54.488Z,12.70
2023-11-25T08:21:26.290Z,12.85
2023-11-25T08:22:59.066Z,16.40
2023-11-25T08:24:31.441Z,14.23
2023-11-25T08:26:04.183Z,10.80
2023-11-25T08:27:36.261Z,10.95
2023-11-25T08:29:09.490Z,12.75
2023-11-25T08:30:42.227Z,10.70
2023-11-25T08:32:14.240Z,9.60
2023-11-25T08:33:47.324Z,11.88
2023-11-25T08:35:21.034Z,10.93
2023-11-25T08:36:54.805Z,10.93
2023-11-25T08:38:26.689Z,7.63
2023-11-25T08:39:59.433Z,12.95
2023-11-25T08:41:32.119Z,11.45
2023-11-25T08:43:09.600Z,9.45
2023-11-25T08:44:46.342Z,11.27
2023-11-25T08:46:21.278Z,12.80
2023-11-25T08:47:55.002Z,10.70
2023-11-25T08:49:26.856Z,10.60
2023-11-25T08:51:01.528Z,15.18
2023-11-25T08:52:36.207Z,13.50
2023-11-25T08:54:09.266Z,10.18
2023-11-25T08:55:42.314Z,11.70
2023-11-25T08:57:15.066Z,10.25
2023-11-25T08:58:48.110Z,6.78
2023-11-25T09:00:21.054Z,11.27
2023-11-25T09:01:55.516Z,10.15
2023-11-25T09:03:28.983Z,12.00
2023-11-25T09:05:09.133Z,8.13
2023-11-25T09:06:47.144Z,8.95
2023-11-25T09:08:18.941Z,11.40
2023-11-25T09:09:51.859Z,10.00
2023-11-25T09:11:26.922Z,14.13
2023-11-25T09:13:00.219Z,14.80
2023-11-25T09:14:32.347Z,10.95
2023-11-25T09:16:06.063Z,10.27
2023-11-25T09:17:40.677Z,9.00
2023-11-25T09:19:14.069Z,9.65
2023-11-25T09:20:48.092Z,11.27
2023-11-25T09:22:21.920Z,8.25
2023-11-25T09:23:56.046Z,10.77
2023-11-25T09:25:30.181Z,10.65
2023-11-25T09:27:02.913Z,9.93
2023-11-25T09:28:35.092Z,8.32
2023-11-25T09:30:12.235Z,13.90
2023-11-25T09:31:44.168Z,12.32
2023-11-25T09:33:16.886Z,10.90
2023-11-25T09:34:52.033Z,9.70
2023-11-25T09:36:26.079Z,13.55
2023-11-25T09:37:59.276Z,9.02
2023-11-25T09:39:33.225Z,9.05
2023-11-25T09:41:06.103Z,10.93
2023-11-25T09:42:38.810Z,11.20
2023-11-25T09:44:15.302Z,10.55
2023-11-25T09:45:49.171Z,10.45
2023-11-25T09:47:21.872Z,13.55
2023-11-25T09:48:53.610Z,11.15
2023-11-25T09:50:26.425Z,9.73
2023-11-25T09:52:01.902Z,11.77
2023-11-25T09:53:39.006Z,11.25
2023-11-25T09:55:11.399Z,13.85
2023-11-25T09:56:44.798Z,12.43
2023-11-25T09:58:18.842Z,12.63
2023-11-25T09:59:52.182Z,13.88
2023-11-25T10:01:24.332Z,10.80
2023-11-25T10:02:59.278Z,12.30
2023-11-25T10:04:34.966Z,12.55
2023-11-25T10:06:09.593Z,6.82
2023-11-25T10:07:42.228Z,13.00
2023-11-25T10:09:16.839Z,16.08
2023-11-25T10:11:00.540Z,17.23
2023-11-25T10:12:33.893Z,14.00
2023-11-25T10:14:10.268Z,19.67
2023-11-25T10:15:47.288Z,10.55
2023-11-25T10:17:20.153Z,18.33
2023-11-25T10:18:52.909Z,12.55
2023-11-25T10:20:24.817Z,12.13
2023-11-25T10:21:58.224Z,12.48
2023-11-25T10:23:29.950Z,13.68
2023-11-25T10:25:04.339Z,16.33
2023-11-25T10:26:38.265Z,11.93
2023-11-25T10:28:15.801Z,12.82
2023-11-25T10:29:50.366Z,13.80
2023-11-25T10:31:23.978Z,16.17
2023-11-25T10:32:59.444Z,11.18
2023-11-25T10:34:31.344Z,17.63
2023-11-25T10:36:05.004Z,22.92
2023-11-25T10:37:38.886Z,16.05
2023-11-25T10:39:11.643Z,13.10
2023-11-25T10:40:44.824Z,13.02
2023-11-25T10:42:18.970Z,13.10
2023-11-25T10:43:50.831Z,12.88
2023-11-25T10:45:28.012Z,13.27
2023-11-25T10:47:00.939Z,13.57
2023-11-25T10:48:34.331Z,26.20
2023-11-25T10:50:08.053Z,10.88
2023-11-25T10:51:41.136Z,25.58
2023-11-25T10:53:15.096Z,13.77
2023-11-25T10:54:48.270Z,11.10
2023-11-25T10:56:22.543Z,11.27
2023-11-25T10:57:58.205Z,8.45
2023-11-25T10:59:33.351Z,13.85
2023-11-25T11:01:06.747Z,8.43
2023-11-25T11:02:45.001Z,9.30
2023-11-25T11:04:24.512Z,10.10
2023-11-25T11:05:57.551Z,13.32
2023-11-25T11:07:33.913Z,9.35
2023-11-25T11:09:10.369Z,10.57
2023-11-25T11:10:48.494Z,9.75
2023-11-25T11:12:28.939Z,9.82
2023-11-25T11:14:08.182Z,7.30
2023-11-25T11:15:41.166Z,8.82
2023-11-25T11:17:21.458Z,11.13
2023-11-25T11:18:55.382Z,7.68
2023-11-25T11:20:30.597Z,8.85
2023-11-25T11:22:07.610Z,11.80
2023-11-25T11:23:40.570Z,12.32
2023-11-25T11:25:19.253Z,7.45
2023-11-25T11:27:01.698Z,8.65
2023-11-25T11:28:44.903Z,9.80
2023-11-25T11:30:26.692Z,6.32
2023-11-25T11:32:00.971Z,9.77
2023-11-25T11:33:33.964Z,8.25
2023-11-25T11:35:09.220Z,8.13
2023-11-25T11:36:42.498Z,8.18
2023-11-25T11:38:24.060Z,6.13
2023-11-25T11:40:03.173Z,7.68
2023-11-25T11:41:36.978Z,7.68
2023-11-25T11:43:15.234Z,8.20
2023-11-25T11:44:57.577Z,8.40
2023-11-25T11:46:31.660Z,8.38
2023-11-25T11:48:04.517Z,9.70
2023-11-25T11:49:37.415Z,6.95
2023-11-25T11:51:11.510Z,6.57
2023-11-25T11:53:03.305Z,6.95
2023-11-25T11:54:35.301Z,7.80
2023-11-25T11:56:08.984Z,6.18
2023-11-25T11:58:05.993Z,6.40
2023-11-25T12:00:14.296Z,7.55
2023-11-25T12:01:47.115Z,6.45
2023-11-25T12:03:19.532Z,6.35
2023-11-25T12:04:52.338Z,6.05
2023-11-25T12:06:25.073Z,4.07
2023-11-25T12:07:57.206Z,4.93
2023-11-25T12:09:29.918Z,8.00
2023-11-25T12:11:05.853Z,5.50
2023-11-25T12:12:41.013Z,4.80
2023-11-25T12:14:14.051Z,3.47
2023-11-25T12:15:48.398Z,5.13
2023-11-25T12:17:20.324Z,3.95
2023-11-25T12:18:53.103Z,3.67
2023-11-25T12:20:27.452Z,6.72
2023-11-25T12:22:00.181Z,3.95
2023-11-25T12:23:44.424Z,4.15
2023-11-25T12:25:25.099Z,4.10
2023-11-25T12:26:58.532Z,3.63
2023-11-25T12:28:31.318Z,5.47
2023-11-25T12:30:03.401Z,3.63
2023-11-25T12:31:37.497Z,4.68
2023-11-25T12:33:11.680Z,6.72
2023-11-25T12:34:46.077Z,3.80
2023-11-25T12:36:20.371Z,2.90
2023-11-25T12:38:04.812Z,4.85
2023-11-25T12:39:45.052Z,2.45
2023-11-25T12:41:17.210Z,4.30
2023-11-25T12:42:51.302Z,3.25
2023-11-25T12:44:23.153Z,3.72
2023-11-25T12:45:55.847Z,4.50
2023-11-25T12:47:29.384Z,6.82
2023-11-25T12:49:18.772Z,2.90
2023-11-25T12:51:04.359Z,4.53
2023-11-25T12:52:36.190Z,4.10
2023-11-25T12:54:10.293Z,3.35
2023-11-25T12:55:45.103Z,3.03
2023-11-25T12:57:18.920Z,3.83
2023-11-25T12:58:51.656Z,4.72
2023-11-25T13:00:23.759Z,5.70
2023-11-25T13:01:56.736Z,4.05
2023-11-25T13:03:32.664Z,2.83
2023-11-25T13:05:07.842Z,4.60
2023-11-25T13:06:47.858Z,3.65
2023-11-25T13:08:22.628Z,5.07
2023-11-25T13:09:54.371Z,3.50
2023-11-25T13:11:27.092Z,3.95
2023-11-25T13:12:58.809Z,5.00
2023-11-25T13:14:31.968Z,5.32
2023-11-25T13:16:05.433Z,8.50
2023-11-25T13:17:38.488Z,4.00
2023-11-25T13:19:12.348Z,3.15
2023-11-25T13:20:45.048Z,2.35
2023-11-25T13:22:16.813Z,4.88
2023-11-25T13:23:50.042Z,5.75
2023-11-25T13:25:22.244Z,4.22
2023-11-25T13:26:54.975Z,4.68
2023-11-25T13:28:26.857Z,3.75
2023-11-25T13:29:59.756Z,7.68
2023-11-25T13:31:31.553Z,7.53
2023-11-25T13:33:04.935Z,48.42
2023-11-25T13:34:40.984Z,59.65
2023-11-25T13:36:13.670Z,9.85
2023-11-25T13:37:45.546Z,4.35
2023-11-25T13:39:20.717Z,2.50
2023-11-25T13:40:52.803Z,2.13
2023-11-25T13:42:27.822Z,3.90
2023-11-25T13:43:59.941Z,4.20
2023-11-25T13:45:32.921Z,5.68
2023-11-25T13:47:05.011Z,3.08
2023-11-25T13:48:37.828Z,2.10
2023-11-25T13:50:11.626Z,3.72
2023-11-25T13:51:44.332Z,3.75
2023-11-25T13:53:19.207Z,3.90
2023-11-25T13:54:52.002Z,2.97
2023-11-25T13:56:25.148Z,1.60
2023-11-25T13:57:58.031Z,4.53
2023-11-25T13:59:29.803Z,4.82
2023-11-25T14:01:02.539Z,3.60
2023-11-25T14:02:34.731Z,2.58
2023-11-25T14:04:08.614Z,1.70
2023-11-25T14:05:44.353Z,2.00
2023-11-25T14:07:18.506Z,3.15
2023-11-25T14:08:51.222Z,3.88
2023-11-25T14:10:23.914Z,1.70
2023-11-25T14:11:55.662Z,4.20
2023-11-25T14:13:31.661Z,2.40
2023-11-25T14:15:05.517Z,3.42
2023-11-25T14:16:38.346Z,2.42
2023-11-25T14:18:11.557Z,2.33
2023-11-25T14:19:46.473Z,2.78
2023-11-25T14:21:20.606Z,4.82
2023-11-25T14:22:52.409Z,9.38
2023-11-25T14:24:26.666Z,10.48
2023-11-25T14:25:58.516Z,6.65
2023-11-25T14:27:33.523Z,8.75
2023-11-25T14:29:07.564Z,4.55
2023-11-25T14:30:40.260Z,5.45
2023-11-25T14:32:12.102Z,3.15
2023-11-25T14:33:44.879Z,4.43
2023-11-25T14:35:18.049Z,4.53
2023-11-25T14:36:51.126Z,4.70
2023-11-25T14:38:23.835Z,4.60
2023-11-25T14:40:00.833Z,5.30
2023-11-25T14:41:34.493Z,4.07
2023-11-25T14:43:07.628Z,3.00
2023-11-25T14:44:40.143Z,2.50
2023-11-25T14:46:13.596Z,2.45
2023-11-25T14:47:46.066Z,4.28
2023-11-25T14:49:19.233Z,3.97
2023-11-25T14:50:52.609Z,4.70
2023-11-25T14:52:27.105Z,2.90
2023-11-25T14:53:58.855Z,2.88
2023-11-25T14:55:31.600Z,2.10
2023-11-25T14:57:03.525Z,5.10
2023-11-25T14:58:36.418Z,4.28
2023-11-25T15:00:13.714Z,4.45
2023-11-25T15:01:46.974Z,3.97
2023-11-25T15:03:19.884Z,5.28
2023-11-25T15:04:51.691Z,4.07
2023-11-25T15:06:24.715Z,2.90
2023-11-25T15:07:57.814Z,3.30
2023-11-25T15:09:30.519Z,2.67
2023-11-25T15:11:05.145Z,3.05
2023-11-25T15:12:37.900Z,6.18
2023-11-25T15:14:09.715Z,10.93
2023-11-25T15:15:42.494Z,12.45
2023-11-25T15:17:16.308Z,16.75
2023-11-25T15:18:48.150Z,7.65
2023-11-25T15:20:20.900Z,6.15
2023-11-25T15:21:53.602Z,4.00
2023-11-25T15:23:28.123Z,4.93
2023-11-25T15:25:01.449Z,5.47
2023-11-25T15:26:35.767Z,4.78
2023-11-25T15:28:08.630Z,5.30
2023-11-25T15:29:40.597Z,4.85
2023-11-25T15:31:14.318Z,4.78
2023-11-25T15:32:46.359Z,7.22
2023-11-25T15:34:19.107Z,4.95
2023-11-25T15:35:50.842Z,6.38
2023-11-25T15:37:23.825Z,4.57
2023-11-25T15:38:57.847Z,4.45
2023-11-25T15:40:29.580Z,4.72
2023-11-25T15:42:02.266Z,7.28
2023-11-25T15:43:35.117Z,7.22
2023-11-25T15:45:09.523Z,6.00
2023-11-25T15:46:42.276Z,8.63
2023-11-25T15:48:14.111Z,5.53
2023-11-25T15:49:47.055Z,8.00
2023-11-25T15:51:19.765Z,6.15
2023-11-25T15:52:51.541Z,6.68
2023-11-25T15:54:25.588Z,14.05
2023-11-25T15:55:57.386Z,9.60
2023-11-25T15:57:30.115Z,7.20
2023-11-25T15:59:04.669Z,6.68
2023-11-25T16:00:36.543Z,9.45
2023-11-25T16:02:09.444Z,6.72
2023-11-25T16:03:41.510Z,7.05
2023-11-25T16:05:15.587Z,8.13
2023-11-25T16:06:50.668Z,8.70
2023-11-25T16:08:24.145Z,12.05
2023-11-25T16:09:58.167Z,25.85
2023-11-25T16:11:33.161Z,16.73
2023-11-25T16:13:04.930Z,19.65
2023-11-25T16:14:38.145Z,27.00
2023-11-25T16:16:10.321Z,26.85
2023-11-25T16:17:43.037Z,48.63
2023-11-25T16:19:15.595Z,18.45
2023-11-25T16:20:48.287Z,68.40
2023-11-25T16:22:20.199Z,19.83
2023-11-25T16:23:53.421Z,18.88
2023-11-25T16:25:26.952Z,81.20
2023-11-25T16:27:00.081Z,7.78
2023-11-25T16:28:32.118Z,21.67
2023-11-25T16:30:06.027Z,37.53
2023-11-25T16:31:37.868Z,6.85
2023-11-25T16:33:11.021Z,32.63
2023-11-25T16:34:42.954Z,136.80
2023-11-25T16:36:15.737Z,43.22
2023-11-25T16:37:48.774Z,113.03
2023-11-25T16:39:23.838Z,72.05
2023-11-25T16:40:57.148Z,36.50
2023-11-25T16:42:29.836Z,124.70
2023-11-25T16:44:01.608Z,85.40
2023-11-25T16:45:34.447Z,114.10
2023-11-25T16:47:06.553Z,13.23
2023-11-25T16:48:48.624Z,41.60
2023-11-25T16:50:26.413Z,11.43
2023-11-25T16:51:59.180Z,24.25
2023-11-25T16:53:31.884Z,8.63
2023-11-25T16:55:04.035Z,40.67
2023-11-25T16:56:38.057Z,23.95
2023-11-25T16:58:10.747Z,55.60
2023-11-25T16:59:42.456Z,101.47
2023-11-25T17:01:15.196Z,83.07
2023-11-25T17:02:48.205Z,52.53
2023-11-25T17:04:20.176Z,56.30
2023-11-25T17:05:53.005Z,70.43
2023-11-25T17:07:25.025Z,52.80
2023-11-25T17:08:57.863Z,69.15
2023-11-25T17:10:31.714Z,70.82
2023-11-25T17:12:06.939Z,8.85
2023-11-25T17:13:38.691Z,13.93
2023-11-25T17:15:11.814Z,9.68
2023-11-25T17:16:43.683Z,13.90
2023-11-25T17:18:16.446Z,8.25
2023-11-25T17:19:48.230Z,6.82
2023-11-25T17:21:20.927Z,8.73
2023-11-25T17:22:53.690Z,7.10
2023-11-25T17:24:26.424Z,8.05
2023-11-25T17:25:59.384Z,5.40
2023-11-25T17:27:33.466Z,5.22
2023-11-25T17:29:06.246Z,7.32
2023-11-25T17:30:37.993Z,11.88
2023-11-25T17:32:11.737Z,7.70
2023-11-25T17:33:43.595Z,7.90
2023-11-25T17:35:16.390Z,10.98
2023-11-25T17:36:48.740Z,8.65
2023-11-25T17:38:21.447Z,7.97
2023-11-25T17:39:53.196Z,6.82
2023-11-25T17:41:27.941Z,9.02
2023-11-25T17:43:01.046Z,9.75
2023-11-25T17:44:33.983Z,6.13
2023-11-25T17:46:05.954Z,6.22
2023-11-25T17:47:38.741Z,7.00
2023-11-25T17:49:10.677Z,10.80
2023-11-25T17:50:43.823Z,5.85
2023-11-25T17:52:15.554Z,5.03
2023-11-25T17:53:48.325Z,9.90
2023-11-25T17:55:20.134Z,6.50
2023-11-25T17:56:53.570Z,5.68
2023-11-25T17:58:26.622Z,7.38
2023-11-25T17:59:59.372Z,8.73
2023-11-25T18:01:31.318Z,6.53
2023-11-25T18:03:05.425Z,6.22
2023-11-25T18:04:37.316Z,5.72
2023-11-25T18:06:10.302Z,11.88
2023-11-25T18:07:45.160Z,7.57
2023-11-25T18:09:20.959Z,5.55
2023-11-25T18:10:52.786Z,7.22
2023-11-25T18:12:25.548Z,7.68
2023-11-25T18:13:58.707Z,6.45
2023-11-25T18:15:31.618Z,8.85
2023-11-25T18:17:03.520Z,6.80
2023-11-25T18:18:36.433Z,7.07
2023-11-25T18:20:12.182Z,5.72
2023-11-25T18:21:44.267Z,7.07
2023-11-25T18:23:17.007Z,7.05
2023-11-25T18:24:50.005Z,7.35
2023-11-25T18:26:21.811Z,4.78
2023-11-25T18:27:55.011Z,4.60
2023-11-25T18:29:29.039Z,5.45
2023-11-25T18:31:00.881Z,5.43
2023-11-25T18:32:33.639Z,3.63
2023-11-25T18:34:05.428Z,4.13
2023-11-25T18:35:41.145Z,4.72
2023-11-25T18:37:15.968Z,4.57
2023-11-25T18:38:47.800Z,5.13
2023-11-25T18:40:22.200Z,3.78
2023-11-25T18:41:53.925Z,3.03
2023-11-25T18:43:27.053Z,4.82
2023-11-25T18:45:00.272Z,5.30
2023-11-25T18:46:33.032Z,7.20
2023-11-25T18:48:05.215Z,9.93
2023-11-25T18:49:38.045Z,6.60
2023-11-25T18:51:09.986Z,9.85
2023-11-25T18:52:42.734Z,6.97
2023-11-25T18:54:14.587Z,6.57
2023-11-25T18:55:49.318Z,6.25
2023-11-25T18:57:22.676Z,7.72
2023-11-25T18:58:54.493Z,7.63
2023-11-25T19:00:29.457Z,4.60
2023-11-25T19:02:01.352Z,5.65
2023-11-25T19:03:34.180Z,8.23
2023-11-25T19:05:08.891Z,5.80
2023-11-25T19:06:40.713Z,5.78
2023-11-25T19:08:13.599Z,7.72
2023-11-25T19:09:45.397Z,5.13
2023-11-25T19:11:18.727Z,6.63
2023-11-25T19:12:51.397Z,7.90
2023-11-25T19:14:23.341Z,5.28
2023-11-25T19:15:58.178Z,7.53
2023-11-25T19:17:30.063Z,6.50
2023-11-25T19:19:02.844Z,7.03
2023-11-25T19:20:34.570Z,7.57
2023-11-25T19:22:11.339Z,6.22
2023-11-25T19:23:44.672Z,4.95
2023-11-25T19:25:17.490Z,8.15
2023-11-25T19:26:49.465Z,11.07
2023-11-25T19:28:25.193Z,11.70
2023-11-25T19:29:58.307Z,12.88
2023-11-25T19:31:31.394Z,12.77
2023-11-25T19:33:04.228Z,8.38
2023-11-25T19:34:36.263Z,10.25
2023-11-25T19:36:10.157Z,12.95
2023-11-25T19:37:41.910Z,10.38
2023-11-25T19:39:15.736Z,11.10
2023-11-25T19:40:48.471Z,6.93
2023-11-25T19:42:20.383Z,11.90
2023-11-25T19:43:53.299Z,7.50
2023-11-25T19:45:25.396Z,5.07
2023-11-25T19:46:59.441Z,4.63
2023-11-25T19:48:31.311Z,3.05
2023-11-25T19:50:04.197Z,2.58
2023-11-25T19:51:35.986Z,3.53
2023-11-25T19:53:09.645Z,3.60
2023-11-25T19:54:41.602Z,3.05
2023-11-25T19:56:14.757Z,1.40
2023-11-25T19:57:47.530Z,1.65
2023-11-25T19:59:19.727Z,2.33
2023-11-25T20:00:58.058Z,2.90
2023-11-25T20:02:31.718Z,3.58
2023-11-25T20:04:04.727Z,2.40
2023-11-25T20:05:36.451Z,2.15
2023-11-25T20:07:09.568Z,2.03
2023-11-25T20:08:42.134Z,3.67
2023-11-25T20:10:14.904Z,2.42
2023-11-25T20:11:47.477Z,3.60
2023-11-25T20:13:20.268Z,2.67
2023-11-25T20:14:53.101Z,3.25
2023-11-25T20:16:32.115Z,1.52
2023-11-25T20:18:05.544Z,1.63
2023-11-25T20:19:38.370Z,2.38
2023-11-25T20:21:10.207Z,2.28
2023-11-25T20:22:43.095Z,1.35
2023-11-25T20:24:15.294Z,5.95
2023-11-25T20:25:48.194Z,5.43
2023-11-25T20:27:20.390Z,3.10
2023-11-25T20:28:53.182Z,8.05
2023-11-25T20:30:24.954Z,6.68
2023-11-25T20:31:57.666Z,3.50